sensor_id;sensor_type;location;lat;lon;timestamp;P1;durP1;ratioP1;P2;durP2;ratioP2
62362;SDS011;48396;48.426;1.500;2023-02-12T00:00:32;15.15;;;7.13;;
62362;SDS011;48396;48.426;1.500;2023-02-12T00:02:58;13.35;;;6.38;;
62362;SDS011;48396;48.426;1.500;2023-02-12T00:05:24;13.27;;;6.82;;
62362;SDS011;48396;48.426;1.500;2023-02-12T00:07:50;13.77;;;7.03;;
62362;SDS011;48396;48.426;1.500;2023-02-12T00:10:17;12.48;;;6.45;;
62362;SDS011;48396;48.426;1.500;2023-02-12T00:12:43;13.45;;;6.47;;
62362;SDS011;48396;48.426;1.500;2023-02-12T00:15:08;15.07;;;7.25;;
62362;SDS011;48396;48.426;1.500;2023-02-12T00:17:34;14.25;;;7.10;;
62362;SDS011;48396;48.426;1.500;2023-02-12T00:20:00;14.32;;;6.75;;
62362;SDS011;48396;48.426;1.500;2023-02-12T00:22:25;11.02;;;6.20;;
62362;SDS011;48396;48.426;1.500;2023-02-12T00:24:53;14.75;;;6.80;;
62362;SDS011;48396;48.426;1.500;2023-02-12T00:27:19;14.68;;;6.85;;
62362;SDS011;48396;48.426;1.500;2023-02-12T00:29:45;15.73;;;7.35;;
62362;SDS011;48396;48.426;1.500;2023-02-12T00:32:11;13.13;;;6.82;;
62362;SDS011;48396;48.426;1.500;2023-02-12T00:34:38;14.77;;;6.95;;
62362;SDS011;48396;48.426;1.500;2023-02-12T00:37:04;15.02;;;7.28;;
62362;SDS011;48396;48.426;1.500;2023-02-12T00:39:30;15.02;;;7.40;;
62362;SDS011;48396;48.426;1.500;2023-02-12T00:41:56;14.13;;;6.75;;
62362;SDS011;48396;48.426;1.500;2023-02-12T00:44:22;16.20;;;6.95;;
62362;SDS011;48396;48.426;1.500;2023-02-12T00:46:48;14.95;;;7.20;;
62362;SDS011;48396;48.426;1.500;2023-02-12T00:49:13;15.75;;;7.20;;
62362;SDS011;48396;48.426;1.500;2023-02-12T00:51:40;12.93;;;7.07;;
62362;SDS011;48396;48.426;1.500;2023-02-12T00:54:05;13.50;;;6.88;;
62362;SDS011;48396;48.426;1.500;2023-02-12T00:56:31;14.68;;;7.35;;
62362;SDS011;48396;48.426;1.500;2023-02-12T00:58:57;14.00;;;6.72;;
62362;SDS011;48396;48.426;1.500;2023-02-12T01:01:23;15.25;;;7.15;;
62362;SDS011;48396;48.426;1.500;2023-02-12T01:03:49;13.48;;;6.63;;
62362;SDS011;48396;48.426;1.500;2023-02-12T01:06:15;15.32;;;6.82;;
62362;SDS011;48396;48.426;1.500;2023-02-12T01:08:40;14.32;;;6.47;;
62362;SDS011;48396;48.426;1.500;2023-02-12T01:11:06;14.15;;;6.90;;
62362;SDS011;48396;48.426;1.500;2023-02-12T01:13:32;12.82;;;6.75;;
62362;SDS011;48396;48.426;1.500;2023-02-12T01:16:03;12.82;;;6.40;;
62362;SDS011;48396;48.426;1.500;2023-02-12T01:18:35;15.23;;;6.97;;
62362;SDS011;48396;48.426;1.500;2023-02-12T01:21:07;12.73;;;6.40;;
62362;SDS011;48396;48.426;1.500;2023-02-12T01:23:43;14.45;;;6.93;;
62362;SDS011;48396;48.426;1.500;2023-02-12T01:26:10;13.57;;;6.15;;
62362;SDS011;48396;48.426;1.500;2023-02-12T01:28:37;13.30;;;6.22;;
62362;SDS011;48396;48.426;1.500;2023-02-12T01:31:11;11.57;;;6.07;;
62362;SDS011;48396;48.426;1.500;2023-02-12T01:33:39;11.50;;;5.97;;
62362;SDS011;48396;48.426;1.500;2023-02-12T01:36:05;12.88;;;6.45;;
62362;SDS011;48396;48.426;1.500;2023-02-12T01:38:32;13.75;;;6.72;;
62362;SDS011;48396;48.426;1.500;2023-02-12T01:41:04;15.50;;;6.65;;
62362;SDS011;48396;48.426;1.500;2023-02-12T01:43:32;13.80;;;7.03;;
62362;SDS011;48396;48.426;1.500;2023-02-12T01:45:59;12.95;;;6.68;;
62362;SDS011;48396;48.426;1.500;2023-02-12T01:48:26;13.32;;;6.80;;
62362;SDS011;48396;48.426;1.500;2023-02-12T01:50:57;14.52;;;6.72;;
62362;SDS011;48396;48.426;1.500;2023-02-12T01:53:26;15.10;;;7.10;;
62362;SDS011;48396;48.426;1.500;2023-02-12T01:55:58;15.25;;;6.95;;
62362;SDS011;48396;48.426;1.500;2023-02-12T01:58:27;16.60;;;7.10;;
62362;SDS011;48396;48.426;1.500;2023-02-12T02:00:59;15.00;;;7.13;;
62362;SDS011;48396;48.426;1.500;2023-02-12T02:03:26;16.10;;;7.32;;
62362;SDS011;48396;48.426;1.500;2023-02-12T02:05:57;15.55;;;6.97;;
62362;SDS011;48396;48.426;1.500;2023-02-12T02:08:31;14.40;;;6.05;;
62362;SDS011;48396;48.426;1.500;2023-02-12T02:10:58;15.13;;;7.13;;
62362;SDS011;48396;48.426;1.500;2023-02-12T02:13:24;16.45;;;7.05;;
62362;SDS011;48396;48.426;1.500;2023-02-12T02:16:29;13.88;;;6.07;;
62362;SDS011;48396;48.426;1.500;2023-02-12T02:18:55;12.85;;;6.15;;
62362;SDS011;48396;48.426;1.500;2023-02-12T02:25:29;14.45;;;6.30;;
62362;SDS011;48396;48.426;1.500;2023-02-12T02:30:22;13.95;;;6.00;;
62362;SDS011;48396;48.426;1.500;2023-02-12T02:35:54;14.23;;;6.22;;
62362;SDS011;48396;48.426;1.500;2023-02-12T02:41:27;14.35;;;6.22;;
62362;SDS011;48396;48.426;1.500;2023-02-12T02:44:09;13.20;;;5.85;;
62362;SDS011;48396;48.426;1.500;2023-02-12T02:46:45;13.45;;;5.65;;
62362;SDS011;48396;48.426;1.500;2023-02-12T02:52:27;14.75;;;6.40;;
62362;SDS011;48396;48.426;1.500;2023-02-12T02:55:04;16.88;;;7.07;;
62362;SDS011;48396;48.426;1.500;2023-02-12T02:57:37;17.45;;;7.47;;
62362;SDS011;48396;48.426;1.500;2023-02-12T03:00:17;16.85;;;7.82;;
62362;SDS011;48396;48.426;1.500;2023-02-12T03:02:57;19.70;;;8.48;;
62362;SDS011;48396;48.426;1.500;2023-02-12T03:05:31;17.55;;;8.30;;
62362;SDS011;48396;48.426;1.500;2023-02-12T03:08:18;19.70;;;9.50;;
62362;SDS011;48396;48.426;1.500;2023-02-12T03:10:51;21.77;;;9.93;;
62362;SDS011;48396;48.426;1.500;2023-02-12T03:13:29;21.83;;;9.52;;
62362;SDS011;48396;48.426;1.500;2023-02-12T03:18:58;22.92;;;10.90;;
62362;SDS011;48396;48.426;1.500;2023-02-12T03:21:48;21.58;;;10.23;;
62362;SDS011;48396;48.426;1.500;2023-02-12T03:24:52;22.27;;;10.38;;
62362;SDS011;48396;48.426;1.500;2023-02-12T03:36:18;21.08;;;9.15;;
62362;SDS011;48396;48.426;1.500;2023-02-12T03:38:48;20.73;;;9.35;;
62362;SDS011;48396;48.426;1.500;2023-02-12T03:41:28;17.75;;;7.60;;
62362;SDS011;48396;48.426;1.500;2023-02-12T03:44:05;18.35;;;7.35;;
62362;SDS011;48396;48.426;1.500;2023-02-12T03:47:03;17.35;;;6.97;;
62362;SDS011;48396;48.426;1.500;2023-02-12T03:49:42;17.42;;;7.55;;
62362;SDS011;48396;48.426;1.500;2023-02-12T03:52:23;18.85;;;6.60;;
62362;SDS011;48396;48.426;1.500;2023-02-12T03:54:49;17.50;;;6.68;;
62362;SDS011;48396;48.426;1.500;2023-02-12T03:57:19;14.23;;;5.97;;
62362;SDS011;48396;48.426;1.500;2023-02-12T03:59:48;15.23;;;6.43;;
62362;SDS011;48396;48.426;1.500;2023-02-12T04:02:15;17.27;;;6.50;;
62362;SDS011;48396;48.426;1.500;2023-02-12T04:04:43;16.13;;;5.88;;
62362;SDS011;48396;48.426;1.500;2023-02-12T04:07:10;13.27;;;5.30;;
62362;SDS011;48396;48.426;1.500;2023-02-12T04:09:37;14.13;;;6.10;;
62362;SDS011;48396;48.426;1.500;2023-02-12T04:14:39;11.80;;;5.32;;
62362;SDS011;48396;48.426;1.500;2023-02-12T04:20:02;13.47;;;5.10;;
62362;SDS011;48396;48.426;1.500;2023-02-12T04:25:52;11.60;;;5.00;;
62362;SDS011;48396;48.426;1.500;2023-02-12T04:33:59;9.75;;;4.25;;
62362;SDS011;48396;48.426;1.500;2023-02-12T04:36:50;13.27;;;4.57;;
62362;SDS011;48396;48.426;1.500;2023-02-12T04:39:24;11.13;;;4.47;;
62362;SDS011;48396;48.426;1.500;2023-02-12T04:41:56;10.15;;;4.45;;
62362;SDS011;48396;48.426;1.500;2023-02-12T04:44:24;11.52;;;4.45;;
62362;SDS011;48396;48.426;1.500;2023-02-12T04:46:52;10.82;;;4.90;;
62362;SDS011;48396;48.426;1.500;2023-02-12T04:49:19;11.70;;;4.68;;
62362;SDS011;48396;48.426;1.500;2023-02-12T04:51:46;10.77;;;4.90;;
62362;SDS011;48396;48.426;1.500;2023-02-12T04:54:16;12.05;;;4.80;;
62362;SDS011;48396;48.426;1.500;2023-02-12T04:56:43;9.75;;;4.60;;
62362;SDS011;48396;48.426;1.500;2023-02-12T04:59:10;9.15;;;4.15;;
62362;SDS011;48396;48.426;1.500;2023-02-12T05:01:37;11.38;;;5.03;;
62362;SDS011;48396;48.426;1.500;2023-02-12T05:04:03;10.50;;;4.30;;
62362;SDS011;48396;48.426;1.500;2023-02-12T05:06:30;11.80;;;5.05;;
62362;SDS011;48396;48.426;1.500;2023-02-12T05:08:58;12.23;;;4.95;;
62362;SDS011;48396;48.426;1.500;2023-02-12T05:11:24;10.80;;;4.55;;
62362;SDS011;48396;48.426;1.500;2023-02-12T05:13:50;11.23;;;5.20;;
62362;SDS011;48396;48.426;1.500;2023-02-12T05:16:17;11.00;;;4.57;;
62362;SDS011;48396;48.426;1.500;2023-02-12T05:18:44;12.52;;;4.88;;
62362;SDS011;48396;48.426;1.500;2023-02-12T05:21:10;11.45;;;4.13;;
62362;SDS011;48396;48.426;1.500;2023-02-12T05:23:36;10.85;;;4.88;;
62362;SDS011;48396;48.426;1.500;2023-02-12T05:26:07;9.77;;;4.63;;
62362;SDS011;48396;48.426;1.500;2023-02-12T05:28:38;12.23;;;4.90;;
62362;SDS011;48396;48.426;1.500;2023-02-12T05:31:06;12.02;;;5.10;;
62362;SDS011;48396;48.426;1.500;2023-02-12T05:33:33;14.52;;;5.47;;
62362;SDS011;48396;48.426;1.500;2023-02-12T05:36:04;12.15;;;5.05;;
62362;SDS011;48396;48.426;1.500;2023-02-12T05:38:31;12.17;;;5.23;;
62362;SDS011;48396;48.426;1.500;2023-02-12T05:41:03;14.00;;;5.82;;
62362;SDS011;48396;48.426;1.500;2023-02-12T05:43:31;13.63;;;5.55;;
62362;SDS011;48396;48.426;1.500;2023-02-12T05:46:00;14.38;;;5.70;;
62362;SDS011;48396;48.426;1.500;2023-02-12T05:48:27;14.73;;;6.38;;
62362;SDS011;48396;48.426;1.500;2023-02-12T05:50:53;14.82;;;5.70;;
62362;SDS011;48396;48.426;1.500;2023-02-12T05:53:19;15.55;;;6.80;;
62362;SDS011;48396;48.426;1.500;2023-02-12T05:55:45;18.55;;;6.68;;
62362;SDS011;48396;48.426;1.500;2023-02-12T05:58:10;15.38;;;6.20;;
62362;SDS011;48396;48.426;1.500;2023-02-12T06:00:36;16.77;;;6.60;;
62362;SDS011;48396;48.426;1.500;2023-02-12T06:03:02;18.45;;;7.05;;
62362;SDS011;48396;48.426;1.500;2023-02-12T06:05:28;15.45;;;6.65;;
62362;SDS011;48396;48.426;1.500;2023-02-12T06:07:54;15.88;;;6.55;;
62362;SDS011;48396;48.426;1.500;2023-02-12T06:10:19;16.65;;;7.07;;
62362;SDS011;48396;48.426;1.500;2023-02-12T06:12:45;15.27;;;6.00;;
62362;SDS011;48396;48.426;1.500;2023-02-12T06:15:11;14.20;;;6.25;;
62362;SDS011;48396;48.426;1.500;2023-02-12T06:17:36;16.67;;;6.80;;
62362;SDS011;48396;48.426;1.500;2023-02-12T06:20:02;16.02;;;6.43;;
62362;SDS011;48396;48.426;1.500;2023-02-12T06:22:28;14.25;;;5.60;;
62362;SDS011;48396;48.426;1.500;2023-02-12T06:24:54;13.95;;;5.63;;
62362;SDS011;48396;48.426;1.500;2023-02-12T06:27:20;14.88;;;6.00;;
62362;SDS011;48396;48.426;1.500;2023-02-12T06:29:46;13.85;;;5.55;;
62362;SDS011;48396;48.426;1.500;2023-02-12T06:32:11;16.00;;;6.13;;
62362;SDS011;48396;48.426;1.500;2023-02-12T06:34:38;12.60;;;5.32;;
62362;SDS011;48396;48.426;1.500;2023-02-12T06:37:04;12.65;;;5.75;;
62362;SDS011;48396;48.426;1.500;2023-02-12T06:39:30;14.18;;;6.00;;
62362;SDS011;48396;48.426;1.500;2023-02-12T06:41:56;12.45;;;5.47;;
62362;SDS011;48396;48.426;1.500;2023-02-12T06:44:21;14.68;;;6.03;;
62362;SDS011;48396;48.426;1.500;2023-02-12T06:46:47;16.05;;;5.75;;
62362;SDS011;48396;48.426;1.500;2023-02-12T06:49:13;15.02;;;5.80;;
62362;SDS011;48396;48.426;1.500;2023-02-12T06:51:40;14.93;;;6.25;;
62362;SDS011;48396;48.426;1.500;2023-02-12T06:54:16;14.07;;;5.80;;
62362;SDS011;48396;48.426;1.500;2023-02-12T06:56:42;13.20;;;5.80;;
62362;SDS011;48396;48.426;1.500;2023-02-12T06:59:09;13.85;;;5.93;;
62362;SDS011;48396;48.426;1.500;2023-02-12T07:01:39;13.53;;;6.10;;
62362;SDS011;48396;48.426;1.500;2023-02-12T07:04:05;14.10;;;5.88;;
62362;SDS011;48396;48.426;1.500;2023-02-12T07:06:32;13.27;;;5.85;;
62362;SDS011;48396;48.426;1.500;2023-02-12T07:08:59;14.32;;;5.85;;
62362;SDS011;48396;48.426;1.500;2023-02-12T07:11:26;11.25;;;5.43;;
62362;SDS011;48396;48.426;1.500;2023-02-12T07:13:56;14.48;;;5.75;;
62362;SDS011;48396;48.426;1.500;2023-02-12T07:16:22;14.75;;;6.43;;
62362;SDS011;48396;48.426;1.500;2023-02-12T07:18:48;16.77;;;6.38;;
62362;SDS011;48396;48.426;1.500;2023-02-12T07:21:14;16.92;;;6.75;;
62362;SDS011;48396;48.426;1.500;2023-02-12T07:23:44;16.52;;;6.53;;
62362;SDS011;48396;48.426;1.500;2023-02-12T07:26:14;14.75;;;5.80;;
62362;SDS011;48396;48.426;1.500;2023-02-12T07:28:41;16.42;;;6.63;;
62362;SDS011;48396;48.426;1.500;2023-02-12T07:33:34;12.90;;;5.95;;
62362;SDS011;48396;48.426;1.500;2023-02-12T07:36:01;14.90;;;6.28;;
62362;SDS011;48396;48.426;1.500;2023-02-12T07:38:28;15.70;;;6.63;;
62362;SDS011;48396;48.426;1.500;2023-02-12T07:40:54;16.52;;;6.65;;
62362;SDS011;48396;48.426;1.500;2023-02-12T07:43:22;14.52;;;6.20;;
62362;SDS011;48396;48.426;1.500;2023-02-12T07:45:48;16.17;;;6.53;;
62362;SDS011;48396;48.426;1.500;2023-02-12T07:48:14;14.90;;;6.60;;
62362;SDS011;48396;48.426;1.500;2023-02-12T07:50:40;14.65;;;5.88;;
62362;SDS011;48396;48.426;1.500;2023-02-12T07:53:06;13.85;;;6.28;;
62362;SDS011;48396;48.426;1.500;2023-02-12T07:55:31;14.23;;;6.32;;
62362;SDS011;48396;48.426;1.500;2023-02-12T07:57:57;13.90;;;5.70;;
62362;SDS011;48396;48.426;1.500;2023-02-12T08:00:23;15.18;;;6.32;;
62362;SDS011;48396;48.426;1.500;2023-02-12T08:02:52;16.88;;;6.28;;
62362;SDS011;48396;48.426;1.500;2023-02-12T08:05:18;14.45;;;6.00;;
62362;SDS011;48396;48.426;1.500;2023-02-12T08:07:44;17.60;;;7.43;;
62362;SDS011;48396;48.426;1.500;2023-02-12T08:10:10;16.00;;;7.00;;
62362;SDS011;48396;48.426;1.500;2023-02-12T08:12:36;16.27;;;7.18;;
62362;SDS011;48396;48.426;1.500;2023-02-12T08:15:01;18.38;;;7.90;;
62362;SDS011;48396;48.426;1.500;2023-02-12T08:17:27;18.92;;;8.35;;
62362;SDS011;48396;48.426;1.500;2023-02-12T08:19:53;17.10;;;7.28;;
62362;SDS011;48396;48.426;1.500;2023-02-12T08:22:19;16.65;;;7.25;;
62362;SDS011;48396;48.426;1.500;2023-02-12T08:24:45;15.75;;;7.00;;
62362;SDS011;48396;48.426;1.500;2023-02-12T08:27:11;15.77;;;6.97;;
62362;SDS011;48396;48.426;1.500;2023-02-12T08:29:37;17.02;;;7.30;;
62362;SDS011;48396;48.426;1.500;2023-02-12T08:32:03;19.08;;;7.60;;
62362;SDS011;48396;48.426;1.500;2023-02-12T08:34:32;16.83;;;7.20;;
62362;SDS011;48396;48.426;1.500;2023-02-12T08:36:59;16.13;;;6.57;;
62362;SDS011;48396;48.426;1.500;2023-02-12T08:39:25;15.15;;;5.95;;
62362;SDS011;48396;48.426;1.500;2023-02-12T08:41:53;16.13;;;6.65;;
62362;SDS011;48396;48.426;1.500;2023-02-12T08:44:22;14.63;;;6.85;;
62362;SDS011;48396;48.426;1.500;2023-02-12T08:46:49;16.60;;;6.88;;
62362;SDS011;48396;48.426;1.500;2023-02-12T08:49:20;15.57;;;6.38;;
62362;SDS011;48396;48.426;1.500;2023-02-12T08:51:49;16.33;;;6.65;;
62362;SDS011;48396;48.426;1.500;2023-02-12T08:54:18;15.07;;;6.28;;
62362;SDS011;48396;48.426;1.500;2023-02-12T08:56:46;15.93;;;6.55;;
62362;SDS011;48396;48.426;1.500;2023-02-12T08:59:12;15.57;;;5.93;;
62362;SDS011;48396;48.426;1.500;2023-02-12T09:01:39;16.60;;;6.40;;
62362;SDS011;48396;48.426;1.500;2023-02-12T09:04:11;14.77;;;6.30;;
62362;SDS011;48396;48.426;1.500;2023-02-12T09:06:43;16.10;;;6.82;;
62362;SDS011;48396;48.426;1.500;2023-02-12T09:09:10;15.50;;;6.50;;
62362;SDS011;48396;48.426;1.500;2023-02-12T09:11:36;15.30;;;5.85;;
62362;SDS011;48396;48.426;1.500;2023-02-12T09:14:06;15.52;;;6.28;;
62362;SDS011;48396;48.426;1.500;2023-02-12T09:16:34;14.65;;;6.55;;
62362;SDS011;48396;48.426;1.500;2023-02-12T09:19:02;14.43;;;6.10;;
62362;SDS011;48396;48.426;1.500;2023-02-12T09:21:28;17.30;;;7.10;;
62362;SDS011;48396;48.426;1.500;2023-02-12T09:23:54;15.60;;;6.82;;
62362;SDS011;48396;48.426;1.500;2023-02-12T09:26:21;14.98;;;6.43;;
62362;SDS011;48396;48.426;1.500;2023-02-12T09:28:49;14.70;;;6.05;;
62362;SDS011;48396;48.426;1.500;2023-02-12T09:31:17;14.15;;;6.13;;
62362;SDS011;48396;48.426;1.500;2023-02-12T09:33:46;17.00;;;6.93;;
62362;SDS011;48396;48.426;1.500;2023-02-12T09:36:14;16.63;;;6.80;;
62362;SDS011;48396;48.426;1.500;2023-02-12T09:38:41;14.75;;;6.38;;
62362;SDS011;48396;48.426;1.500;2023-02-12T09:46:30;12.85;;;6.00;;
62362;SDS011;48396;48.426;1.500;2023-02-12T09:51:34;15.93;;;6.15;;
62362;SDS011;48396;48.426;1.500;2023-02-12T09:54:06;13.70;;;5.95;;
62362;SDS011;48396;48.426;1.500;2023-02-12T09:56:39;13.73;;;5.80;;
62362;SDS011;48396;48.426;1.500;2023-02-12T09:59:10;13.60;;;5.72;;
62362;SDS011;48396;48.426;1.500;2023-02-12T10:04:06;14.93;;;5.93;;
62362;SDS011;48396;48.426;1.500;2023-02-12T10:06:34;14.70;;;5.97;;
62362;SDS011;48396;48.426;1.500;2023-02-12T10:09:09;15.63;;;6.00;;
62362;SDS011;48396;48.426;1.500;2023-02-12T10:11:48;14.52;;;6.05;;
62362;SDS011;48396;48.426;1.500;2023-02-12T10:25:46;13.40;;;5.93;;
62362;SDS011;48396;48.426;1.500;2023-02-12T10:28:30;11.30;;;5.68;;
62362;SDS011;48396;48.426;1.500;2023-02-12T10:31:01;11.25;;;5.45;;
62362;SDS011;48396;48.426;1.500;2023-02-12T10:33:40;14.45;;;6.10;;
62362;SDS011;48396;48.426;1.500;2023-02-12T10:39:11;12.93;;;5.40;;
62362;SDS011;48396;48.426;1.500;2023-02-12T10:44:22;12.57;;;5.53;;
62362;SDS011;48396;48.426;1.500;2023-02-12T10:46:47;12.57;;;5.45;;
62362;SDS011;48396;48.426;1.500;2023-02-12T10:49:14;13.93;;;6.00;;
62362;SDS011;48396;48.426;1.500;2023-02-12T10:54:30;14.68;;;6.20;;
62362;SDS011;48396;48.426;1.500;2023-02-12T10:57:12;13.25;;;5.72;;
62362;SDS011;48396;48.426;1.500;2023-02-12T10:59:45;14.80;;;6.05;;
62362;SDS011;48396;48.426;1.500;2023-02-12T11:04:47;14.13;;;6.47;;
62362;SDS011;48396;48.426;1.500;2023-02-12T11:07:14;15.52;;;6.70;;
62362;SDS011;48396;48.426;1.500;2023-02-12T11:09:44;14.02;;;6.47;;
62362;SDS011;48396;48.426;1.500;2023-02-12T11:12:18;13.48;;;6.07;;
62362;SDS011;48396;48.426;1.500;2023-02-12T11:14:48;16.95;;;6.72;;
62362;SDS011;48396;48.426;1.500;2023-02-12T11:17:21;16.98;;;7.38;;
62362;SDS011;48396;48.426;1.500;2023-02-12T11:20:04;17.60;;;7.20;;
62362;SDS011;48396;48.426;1.500;2023-02-12T11:22:33;19.05;;;7.00;;
62362;SDS011;48396;48.426;1.500;2023-02-12T11:25:01;17.67;;;7.10;;
62362;SDS011;48396;48.426;1.500;2023-02-12T11:27:40;14.02;;;6.30;;
62362;SDS011;48396;48.426;1.500;2023-02-12T11:30:12;15.40;;;6.43;;
62362;SDS011;48396;48.426;1.500;2023-02-12T11:32:40;15.50;;;6.43;;
62362;SDS011;48396;48.426;1.500;2023-02-12T11:37:42;12.80;;;6.18;;
62362;SDS011;48396;48.426;1.500;2023-02-12T11:40:14;13.95;;;6.15;;
62362;SDS011;48396;48.426;1.500;2023-02-12T11:42:45;13.93;;;5.75;;
62362;SDS011;48396;48.426;1.500;2023-02-12T11:45:25;14.75;;;6.30;;
62362;SDS011;48396;48.426;1.500;2023-02-12T11:47:55;13.85;;;6.13;;
62362;SDS011;48396;48.426;1.500;2023-02-12T11:50:29;14.15;;;6.10;;
62362;SDS011;48396;48.426;1.500;2023-02-12T11:53:06;14.65;;;6.57;;
62362;SDS011;48396;48.426;1.500;2023-02-12T11:55:34;17.50;;;7.03;;
62362;SDS011;48396;48.426;1.500;2023-02-12T12:00:44;13.82;;;6.22;;
62362;SDS011;48396;48.426;1.500;2023-02-12T12:03:56;17.58;;;7.13;;
62362;SDS011;48396;48.426;1.500;2023-02-12T12:07:10;16.63;;;7.07;;
62362;SDS011;48396;48.426;1.500;2023-02-12T12:09:19;16.40;;;6.32;;
62362;SDS011;48396;48.426;1.500;2023-02-12T12:12:09;13.90;;;5.95;;
62362;SDS011;48396;48.426;1.500;2023-02-12T12:17:39;13.52;;;5.70;;
62362;SDS011;48396;48.426;1.500;2023-02-12T12:20:42;14.35;;;5.88;;
62362;SDS011;48396;48.426;1.500;2023-02-12T12:23:23;13.57;;;5.82;;
62362;SDS011;48396;48.426;1.500;2023-02-12T12:26:06;10.82;;;5.15;;
62362;SDS011;48396;48.426;1.500;2023-02-12T12:28:46;13.77;;;5.53;;
62362;SDS011;48396;48.426;1.500;2023-02-12T12:34:14;12.18;;;5.15;;
62362;SDS011;48396;48.426;1.500;2023-02-12T12:47:33;12.50;;;5.60;;
62362;SDS011;48396;48.426;1.500;2023-02-12T12:53:12;12.48;;;5.25;;
62362;SDS011;48396;48.426;1.500;2023-02-12T12:56:08;13.30;;;5.70;;
62362;SDS011;48396;48.426;1.500;2023-02-12T13:02:11;11.57;;;5.45;;
62362;SDS011;48396;48.426;1.500;2023-02-12T13:10:49;11.60;;;4.85;;
62362;SDS011;48396;48.426;1.500;2023-02-12T13:18:57;11.75;;;5.18;;
62362;SDS011;48396;48.426;1.500;2023-02-12T13:21:43;9.73;;;4.97;;
62362;SDS011;48396;48.426;1.500;2023-02-12T13:24:29;10.93;;;4.93;;
62362;SDS011;48396;48.426;1.500;2023-02-12T13:27:25;10.48;;;5.18;;
62362;SDS011;48396;48.426;1.500;2023-02-12T13:30:05;10.68;;;5.22;;
62362;SDS011;48396;48.426;1.500;2023-02-12T13:32:49;10.55;;;5.07;;
62362;SDS011;48396;48.426;1.500;2023-02-12T13:35:25;11.05;;;5.05;;
62362;SDS011;48396;48.426;1.500;2023-02-12T13:37:55;11.63;;;4.95;;
62362;SDS011;48396;48.426;1.500;2023-02-12T13:40:22;10.02;;;5.13;;
62362;SDS011;48396;48.426;1.500;2023-02-12T13:48:46;12.70;;;5.72;;
62362;SDS011;48396;48.426;1.500;2023-02-12T13:56:28;13.48;;;5.55;;
62362;SDS011;48396;48.426;1.500;2023-02-12T14:02:42;13.57;;;6.22;;
62362;SDS011;48396;48.426;1.500;2023-02-12T14:07:16;11.13;;;5.03;;
62362;SDS011;48396;48.426;1.500;2023-02-12T14:09:44;13.15;;;5.65;;
62362;SDS011;48396;48.426;1.500;2023-02-12T14:15:07;12.48;;;5.30;;
62362;SDS011;48396;48.426;1.500;2023-02-12T14:17:52;9.50;;;4.93;;
62362;SDS011;48396;48.426;1.500;2023-02-12T14:20:22;10.82;;;5.05;;
62362;SDS011;48396;48.426;1.500;2023-02-12T14:30:33;10.50;;;4.95;;
62362;SDS011;48396;48.426;1.500;2023-02-12T14:35:39;12.63;;;5.70;;
62362;SDS011;48396;48.426;1.500;2023-02-12T14:54:23;12.25;;;5.68;;
62362;SDS011;48396;48.426;1.500;2023-02-12T14:57:06;13.98;;;6.25;;
62362;SDS011;48396;48.426;1.500;2023-02-12T14:59:37;12.88;;;5.82;;
62362;SDS011;48396;48.426;1.500;2023-02-12T15:02:07;11.80;;;5.30;;
62362;SDS011;48396;48.426;1.500;2023-02-12T15:04:41;15.23;;;6.22;;
62362;SDS011;48396;48.426;1.500;2023-02-12T15:07:11;11.77;;;5.40;;
62362;SDS011;48396;48.426;1.500;2023-02-12T15:09:57;11.38;;;5.40;;
62362;SDS011;48396;48.426;1.500;2023-02-12T15:12:41;12.23;;;5.68;;
62362;SDS011;48396;48.426;1.500;2023-02-12T15:15:19;11.43;;;5.40;;
62362;SDS011;48396;48.426;1.500;2023-02-12T15:24:02;11.25;;;5.10;;
62362;SDS011;48396;48.426;1.500;2023-02-12T15:26:36;10.70;;;5.20;;
62362;SDS011;48396;48.426;1.500;2023-02-12T15:29:05;11.30;;;4.90;;
62362;SDS011;48396;48.426;1.500;2023-02-12T15:31:38;13.88;;;5.40;;
62362;SDS011;48396;48.426;1.500;2023-02-12T15:34:04;10.55;;;5.07;;
62362;SDS011;48396;48.426;1.500;2023-02-12T15:36:31;10.93;;;5.20;;
62362;SDS011;48396;48.426;1.500;2023-02-12T15:39:02;9.68;;;4.88;;
62362;SDS011;48396;48.426;1.500;2023-02-12T15:44:01;10.50;;;4.88;;
62362;SDS011;48396;48.426;1.500;2023-02-12T15:46:29;11.32;;;5.25;;
62362;SDS011;48396;48.426;1.500;2023-02-12T15:48:55;11.20;;;5.18;;
62362;SDS011;48396;48.426;1.500;2023-02-12T15:54:03;13.45;;;5.72;;
62362;SDS011;48396;48.426;1.500;2023-02-12T15:56:30;10.98;;;5.03;;
62362;SDS011;48396;48.426;1.500;2023-02-12T15:58:58;10.93;;;5.30;;
62362;SDS011;48396;48.426;1.500;2023-02-12T16:01:27;12.13;;;5.72;;
62362;SDS011;48396;48.426;1.500;2023-02-12T16:04:01;12.43;;;5.38;;
62362;SDS011;48396;48.426;1.500;2023-02-12T16:09:06;11.02;;;4.88;;
62362;SDS011;48396;48.426;1.500;2023-02-12T16:11:34;8.40;;;4.55;;
62362;SDS011;48396;48.426;1.500;2023-02-12T16:14:01;12.68;;;5.30;;
62362;SDS011;48396;48.426;1.500;2023-02-12T16:17:16;14.25;;;6.07;;
62362;SDS011;48396;48.426;1.500;2023-02-12T16:19:28;13.13;;;5.25;;
62362;SDS011;48396;48.426;1.500;2023-02-12T16:22:07;10.77;;;5.68;;
62362;SDS011;48396;48.426;1.500;2023-02-12T16:24:44;13.23;;;6.15;;
62362;SDS011;48396;48.426;1.500;2023-02-12T16:27:17;11.07;;;5.53;;
62362;SDS011;48396;48.426;1.500;2023-02-12T16:29:49;13.40;;;5.65;;
62362;SDS011;48396;48.426;1.500;2023-02-12T16:32:39;13.38;;;5.97;;
62362;SDS011;48396;48.426;1.500;2023-02-12T16:50:28;15.20;;;6.43;;
62362;SDS011;48396;48.426;1.500;2023-02-12T16:53:14;15.88;;;7.80;;
62362;SDS011;48396;48.426;1.500;2023-02-12T16:56:10;16.02;;;7.53;;
62362;SDS011;48396;48.426;1.500;2023-02-12T16:58:39;14.57;;;6.57;;
62362;SDS011;48396;48.426;1.500;2023-02-12T17:01:06;13.90;;;6.70;;
62362;SDS011;48396;48.426;1.500;2023-02-12T17:03:32;16.85;;;6.72;;
62362;SDS011;48396;48.426;1.500;2023-02-12T17:05:59;10.77;;;5.78;;
62362;SDS011;48396;48.426;1.500;2023-02-12T17:08:25;13.60;;;5.80;;
62362;SDS011;48396;48.426;1.500;2023-02-12T17:10:51;13.48;;;5.78;;
62362;SDS011;48396;48.426;1.500;2023-02-12T17:13:17;12.90;;;5.80;;
62362;SDS011;48396;48.426;1.500;2023-02-12T17:15:54;11.57;;;5.72;;
62362;SDS011;48396;48.426;1.500;2023-02-12T17:18:22;10.15;;;5.43;;
62362;SDS011;48396;48.426;1.500;2023-02-12T17:20:56;10.80;;;5.07;;
62362;SDS011;48396;48.426;1.500;2023-02-12T17:23:37;10.93;;;5.45;;
62362;SDS011;48396;48.426;1.500;2023-02-12T17:26:03;11.00;;;5.10;;
62362;SDS011;48396;48.426;1.500;2023-02-12T17:28:31;10.45;;;5.03;;
62362;SDS011;48396;48.426;1.500;2023-02-12T17:30:57;11.25;;;4.82;;
62362;SDS011;48396;48.426;1.500;2023-02-12T17:33:22;10.95;;;5.25;;
62362;SDS011;48396;48.426;1.500;2023-02-12T17:35:48;9.77;;;5.00;;
62362;SDS011;48396;48.426;1.500;2023-02-12T17:38:14;12.35;;;5.47;;
62362;SDS011;48396;48.426;1.500;2023-02-12T17:40:40;11.82;;;5.18;;
62362;SDS011;48396;48.426;1.500;2023-02-12T17:43:06;10.80;;;5.20;;
62362;SDS011;48396;48.426;1.500;2023-02-12T17:45:32;10.27;;;5.22;;
62362;SDS011;48396;48.426;1.500;2023-02-12T17:47:58;12.35;;;5.13;;
62362;SDS011;48396;48.426;1.500;2023-02-12T17:50:23;10.75;;;5.18;;
62362;SDS011;48396;48.426;1.500;2023-02-12T17:52:50;11.02;;;4.97;;
62362;SDS011;48396;48.426;1.500;2023-02-12T17:55:16;10.18;;;4.80;;
62362;SDS011;48396;48.426;1.500;2023-02-12T17:57:42;11.38;;;5.53;;
62362;SDS011;48396;48.426;1.500;2023-02-12T18:00:09;9.52;;;4.95;;
62362;SDS011;48396;48.426;1.500;2023-02-12T18:02:35;12.65;;;5.70;;
62362;SDS011;48396;48.426;1.500;2023-02-12T18:05:02;12.45;;;5.43;;
62362;SDS011;48396;48.426;1.500;2023-02-12T18:07:30;11.50;;;5.30;;